PWSweather.com
Personal Weather Stations
Station Observations
WISCHPK61
Green Bay Schmitt Park, Green Bay, WI 54311

Green Bay Schmitt ParkGreen Bay, WI 54311

Lat: 44.514277, Lon: -87.935067

Elevation: 735

Station Type: Acu Rite Pro Weather Center model 02032C

http://greenbayweathercam.com

High Low Average
Temperature -9.0°F-22.8°C -21.1°F-29.5°C -15.4°F-26.3°C
Dew Point -9.2°F-22.9°C -30.2°F-34.6°C -17.6°F-27.6°C
Winds 2.3 mph 3.7 kmh Calm Calm Calm NWCalm NW
Wind Gusts 5.8 mph9.3 kmh -- 1.0 mph1.6 kmh
Humidity 99% 49% 91%
Pressure 29.49 in998.6 mb 29.15 in987.1 mb -
Precipitation 0.00 in0.0 mm - -
Hour Temp Dew Point Humidity Winds Wind Gusts Pressure Precip Precip Rate Daily Precip Total
12:00 AM -13.0°F-25.0°C -13.2°F-25.1°C 99% Calm Calm -- 29.14 in986.8 mb - 0.00 in0.0 mm 0.00 in0.0 mm
01:00 AM -14.4°F-25.8°C -14.6°F-25.9°C 99% Calm Calm -- 29.15 in987.1 mb - 0.00 in0.0 mm 0.00 in0.0 mm
02:00 AM -16.4°F-26.9°C -16.6°F-27.0°C 99% Calm Calm -- 29.15 in987.1 mb - 0.00 in0.0 mm 0.00 in0.0 mm
03:00 AM -17.1°F-27.3°C -17.3°F-27.4°C 99% Calm Calm -- 29.16 in987.5 mb - 0.00 in0.0 mm 0.00 in0.0 mm
04:00 AM -18.7°F-28.2°C -18.9°F-28.3°C 99% Calm Calm -- 29.18 in988.1 mb - 0.00 in0.0 mm 0.00 in0.0 mm
05:00 AM -20.0°F-28.9°C -20.2°F-29.0°C 99% Calm Calm -- 29.19 in988.5 mb - 0.00 in0.0 mm 0.00 in0.0 mm
06:00 AM -20.4°F-29.1°C -20.6°F-29.2°C 99% Calm Calm -- 29.20 in988.8 mb - 0.00 in0.0 mm 0.00 in0.0 mm
07:00 AM -20.7°F-29.3°C -20.9°F-29.4°C 99% Calm Calm -- 29.23 in989.8 mb - 0.00 in0.0 mm 0.00 in0.0 mm
08:00 AM -21.1°F-29.5°C -21.3°F-29.6°C 99% Calm Calm -- 29.25 in990.5 mb - 0.00 in0.0 mm 0.00 in0.0 mm
09:00 AM -20.0°F-28.9°C -20.2°F-29.0°C 99% Calm Calm -- 29.27 in991.2 mb - 0.00 in0.0 mm 0.00 in0.0 mm
10:00 AM -18.6°F-28.1°C -30.2°F-34.6°C 54% Calm Calm -- 29.31 in992.6 mb - 0.00 in0.0 mm 0.00 in0.0 mm
11:00 AM -17.3°F-27.4°C -17.5°F-27.5°C 99% Calm Calm -- 29.33 in993.2 mb - 0.00 in0.0 mm 0.00 in0.0 mm
12:00 PM -15.8°F-26.6°C -20.2°F-29.0°C 80% Calm Calm -- 29.34 in993.6 mb - 0.00 in0.0 mm 0.00 in0.0 mm
01:00 PM -12.1°F-24.5°C -12.3°F-24.6°C 99% 2.3 mph W3.7 kmh W 2.3 mph3.7 kmh 29.34 in993.6 mb - 0.00 in0.0 mm 0.00 in0.0 mm
02:00 PM -9.0°F-22.8°C -9.2°F-22.9°C 99% 2.3 mph NW3.7 kmh NW 5.8 mph9.3 kmh 29.34 in993.6 mb - 0.00 in0.0 mm 0.00 in0.0 mm
03:00 PM -10.5°F-23.6°C -24.1°F-31.2°C 50% Calm Calm -- 29.36 in994.2 mb - 0.00 in0.0 mm 0.00 in0.0 mm
04:00 PM -10.6°F-23.7°C -10.8°F-23.8°C 99% 1.2 mph NW1.9 kmh NW 5.8 mph9.3 kmh 29.38 in994.9 mb - 0.00 in0.0 mm 0.00 in0.0 mm
05:00 PM -11.0°F-23.9°C -11.2°F-24.0°C 99% Calm Calm -- 29.40 in995.6 mb - 0.00 in0.0 mm 0.00 in0.0 mm
06:00 PM -12.1°F-24.5°C -25.9°F-32.2°C 49% Calm Calm -- 29.41 in995.9 mb - 0.00 in0.0 mm 0.00 in0.0 mm
07:00 PM -13.0°F-25.0°C -13.2°F-25.1°C 99% Calm Calm -- 29.43 in996.6 mb - 0.00 in0.0 mm 0.00 in0.0 mm
08:00 PM -13.4°F-25.2°C -13.6°F-25.3°C 99% Calm Calm -- 29.45 in997.3 mb - 0.00 in0.0 mm 0.00 in0.0 mm
09:00 PM -13.5°F-25.3°C -13.7°F-25.4°C 99% Calm Calm -- 29.47 in998.0 mb - 0.00 in0.0 mm 0.00 in0.0 mm
10:00 PM -13.9°F-25.5°C -14.1°F-25.6°C 99% Calm Calm -- 29.47 in998.0 mb - 0.00 in0.0 mm 0.00 in0.0 mm
11:00 PM -14.8°F-26.0°C -15.0°F-26.1°C 99% Calm Calm -- 29.48 in998.3 mb - 0.00 in0.0 mm 0.00 in0.0 mm